Alberta, Minnesota
Current Conditions -  °F | °C
As of 11:44 PM on Saturday 25 Oct 2014 (Local Time) from KMOX Reporting Station
Clear Clear  
Wind Chill: 34°   Ceiling: Unl
Heat Index: 37°   Visibility: 10mi
Dew Point: 25°   Wind: 5mph
Humidity: 60%   Direction: 100°E
Pressure: 30.02"   Gusts: NA
Location:  45.57°N, 96.05°W
Report Text: KMOX 260444Z AUTO 10004KT 10SM CLR 03/M04 A3002 RMK AO2
Loading
Personal Weather Stations






























Interactive Weather Map
Tropical Storm Tracking
New forecast layout! Learn more

10-Day Weather Forecast

Advertisements
Track Severe Weather on mobile